Time;durP1;ratioP1;P1;durP2;ratioP2;P2;SDS_P1;SDS_P2;PMS_P1;PMS_P2;Temp;Humidity;BMP_temperature;BMP_pressure;BME280_temperature;BME280_humidity;BME280_pressure;Samples;Min_cycle;Max_cycle;Signal;HPM_P1;HPM_P2
2023/01/05 09:30:45;;;;;;;9.53;5.85;;;;;;;4.33;95.16;98007.50;1781024;78;25372;-41
2023/01/05 09:33:11;;;;;;;6.85;4.62;;;;;;;4.48;94.78;98000.53;1760108;79;21002;-41
2023/01/05 09:35:38;;;;;;;6.80;4.30;;;;;;;4.67;94.08;97997.86;1762324;80;23130;-41
2023/01/05 09:38:05;;;;;;;5.20;3.70;;;;;;;4.86;93.35;97989.80;1732800;82;20899;-41
2023/01/05 09:40:40;;;;;;;6.25;3.85;;;;;;;5.05;92.42;97986.31;1764034;80;20939;-42
2023/01/05 09:43:08;;;;;;;5.00;3.47;;;;;;;5.22;91.86;97989.34;1811912;79;20953;-39
2023/01/05 09:45:34;;;;;;;5.30;3.62;;;;;;;5.36;91.16;97977.27;1777011;79;20945;-39
2023/01/05 09:48:02;;;;;;;7.45;3.42;;;;;;;5.45;90.42;97982.61;1810506;79;21758;-39
2023/01/05 09:50:32;;;;;;;5.50;3.47;;;;;;;5.60;89.37;97973.66;1764467;79;20996;-39
2023/01/05 09:52:59;;;;;;;;;;;;;;;5.72;88.52;97965.94;1794201;79;21146;-40
2023/01/05 09:55:28;;;;;;;5.95;3.58;;;;;;;5.80;87.94;97955.52;1787031;79;21355;-39
2023/01/05 09:58:03;;;;;;;4.35;3.30;;;;;;;5.82;87.79;97945.73;1774160;79;21386;-40
2023/01/05 10:00:30;;;;;;;5.28;3.10;;;;;;;5.93;87.06;97950.16;1779659;79;21148;-39
2023/01/05 10:03:11;;;;;;;4.78;3.25;;;;;;;6.05;86.21;97943.81;1794646;79;20961;-39
2023/01/05 10:05:40;;;;;;;4.58;3.27;;;;;;;6.09;85.68;97956.73;1790103;79;21079;-39
2023/01/05 14:01:59;;;;;;;2.50;2.20;;;;;;;7.51;92.53;97803.23;1756215;80;23403;-41
2023/01/05 14:04:32;;;;;;;2.42;2.12;;;;;;;7.61;91.63;97801.17;1748221;81;21000;-41
2023/01/05 14:07:07;;;;;;;2.72;2.08;;;;;;;7.55;91.55;97805.40;1764165;81;21210;-41
2023/01/05 14:09:52;;;;;;;3.40;2.08;;;;;;;7.49;91.58;97804.98;1764438;81;20988;-41
2023/01/05 14:12:23;;;;;;;2.70;2.00;;;;;;;7.55;91.13;97800.00;1764707;81;21051;-41
2023/01/05 14:15:11;;;;;;;3.40;2.20;;;;;;;7.54;90.13;97807.89;1764554;81;20980;-41
2023/01/05 14:17:58;;;;;;;2.20;2.00;;;;;;;7.49;89.94;97812.29;1764929;81;21687;-41
2023/01/05 14:20:45;;;;;;;3.87;2.58;;;;;;;7.45;89.52;97810.16;1764529;81;21272;-41
2023/01/05 14:23:29;;;;;;;2.62;2.05;;;;;;;7.44;88.97;97816.12;1764562;81;20924;-41
2023/01/05 14:26:02;;;;;;;3.37;2.70;;;;;;;7.42;88.83;97815.13;1764543;81;20929;-41
2023/01/05 14:28:40;;;;;;;3.10;2.40;;;;;;;7.37;88.95;97819.53;1764392;81;21021;-41
2023/01/05 14:31:15;;;;;;;2.42;2.10;;;;;;;7.36;88.96;97818.55;1764682;81;20968;-42
2023/01/05 14:33:51;;;;;;;4.65;2.20;;;;;;;7.38;88.55;97815.69;1761335;81;21082;-41
2023/01/05 14:36:34;;;;;;;3.72;2.40;;;;;;;7.41;88.43;97820.32;1764654;81;21007;-41
2023/01/05 14:39:19;;;;;;;2.65;2.25;;;;;;;7.39;88.50;97822.64;1764468;81;20972;-41
2023/01/05 14:42:14;;;;;;;2.40;2.00;;;;;;;7.39;88.61;97818.59;1755550;81;21549;-41
2023/01/05 14:44:48;;;;;;;3.02;2.22;;;;;;;7.43;88.26;97815.34;1764579;81;20995;-41
2023/01/05 14:47:16;;;;;;;4.53;2.27;;;;;;;7.49;88.04;97825.77;1764551;81;21138;-41
2023/01/05 14:49:52;;;;;;;2.77;2.47;;;;;;;7.50;87.92;97821.94;1764939;81;21655;-41
2023/01/05 14:52:39;;;;;;;4.45;2.42;;;;;;;7.52;87.75;97823.66;1764620;81;21091;-41
2023/01/05 14:55:09;;;;;;;2.83;2.33;;;;;;;7.52;87.64;97822.31;1764564;81;20940;-41
2023/01/05 14:57:38;;;;;;;3.90;2.57;;;;;;;7.58;87.31;97824.86;1764847;81;21079;-41
2023/01/05 15:00:16;;;;;;;2.27;2.08;;;;;;;7.64;87.07;97818.75;1737261;81;21096;-42
2023/01/05 15:02:55;;;;;;;3.15;2.50;;;;;;;7.65;86.94;97820.87;1762842;81;21035;-41
2023/01/05 15:05:21;;;;;;;2.85;2.12;;;;;;;7.62;86.91;97821.60;1746236;81;20984;-41
2023/01/05 15:08:12;;;;;;;2.17;1.98;;;;;;;7.63;86.70;97825.86;1764007;81;21350;-41
2023/01/05 15:11:20;;;;;;;3.00;2.27;;;;;;;7.68;86.64;97828.20;1763494;81;21044;-41
2023/01/05 15:17:32;;;;;;;2.05;1.85;;;;;;;7.67;86.43;97834.73;1764043;81;21027;-41
2023/01/05 15:20:40;;;;;;;3.67;1.70;;;;;;;7.62;86.09;97835.09;1763859;81;20984;-41
2023/01/05 15:23:50;;;;;;;2.67;1.80;;;;;;;7.63;86.12;97832.59;1763928;81;21015;-41
2023/01/05 15:26:42;;;;;;;2.77;1.92;;;;;;;7.59;86.11;97833.16;1671554;85;21124;-41
2023/01/05 15:29:26;;;;;;;2.62;1.95;;;;;;;7.52;86.11;97837.14;1671563;85;21153;-41
2023/01/05 15:32:25;;;;;;;3.77;2.10;;;;;;;7.51;86.01;97826.16;1741669;81;20999;-41
2023/01/05 15:35:02;;;;;;;2.33;2.00;;;;;;;7.53;85.89;97833.30;1764173;81;21202;-41
2023/01/05 15:37:35;;;;;;;2.47;2.27;;;;;;;7.50;85.88;97832.72;1764084;81;21044;-41
2023/01/05 15:40:06;;;;;;;2.70;1.65;;;;;;;7.45;85.84;97833.07;1764349;81;21055;-41
2023/01/05 15:42:43;;;;;;;2.08;1.72;;;;;;;7.42;85.87;97832.66;1764042;81;20957;-41
2023/01/05 15:45:25;;;;;;;1.82;1.60;;;;;;;7.49;85.55;97828.47;1763918;81;20964;-41
2023/01/05 15:47:51;;;;;;;2.37;1.42;;;;;;;7.51;85.35;97830.97;1764142;81;20944;-41
2023/01/05 15:50:26;;;;;;;1.40;1.30;;;;;;;7.49;85.27;97833.86;1764026;81;20968;-41
2023/01/05 15:52:58;;;;;;;2.27;1.52;;;;;;;7.49;84.88;97833.29;1763843;81;21044;-42
2023/01/05 15:55:26;;;;;;;3.92;1.32;;;;;;;7.51;84.57;97834.24;1764336;81;21093;-41
2023/01/05 15:58:02;;;;;;;1.52;1.35;;;;;;;7.53;84.46;97839.48;1763924;81;20937;-42
2023/01/05 16:00:34;;;;;;;1.45;1.20;;;;;;;7.49;84.41;97839.25;1761878;81;21127;-42
2023/01/05 16:03:05;;;;;;;2.95;1.30;;;;;;;7.46;84.44;97845.38;1746839;82;20986;-41
2023/01/05 16:05:34;;;;;;;1.70;1.10;;;;;;;7.45;84.46;97840.59;1744580;82;21037;-41
2023/01/05 16:08:07;;;;;;;1.43;1.13;;;;;;;7.48;84.32;97845.22;1747126;82;21104;-41
2023/01/05 16:10:54;;;;;;;3.08;1.30;;;;;;;7.45;84.30;97847.33;1746789;82;20985;-41
2023/01/05 16:13:45;;;;;;;3.80;1.75;;;;;;;7.39;84.38;97846.90;1746848;82;21507;-41
2023/01/05 16:16:18;;;;;;;2.90;1.70;;;;;;;7.38;84.40;97843.22;1746795;82;21548;-41
2023/01/05 16:18:52;;;;;;;2.22;1.57;;;;;;;7.37;84.36;97851.87;1746732;82;21614;-41
2023/01/05 16:21:37;;;;;;;2.15;1.60;;;;;;;7.35;84.46;97852.07;1740930;82;21218;-41
2023/01/05 16:24:09;;;;;;;1.72;1.40;;;;;;;7.30;84.60;97854.54;1746792;82;20937;-41
2023/01/05 16:26:37;;;;;;;1.98;1.22;;;;;;;7.29;84.72;97850.86;1735906;82;20998;-41
2023/01/05 16:29:43;;;;;;;1.37;1.00;;;;;;;7.33;84.47;97847.61;1746765;82;20994;-41
2023/01/05 16:32:32;;;;;;;2.37;1.50;;;;;;;7.36;84.41;97853.59;1746844;82;21009;-41
2023/01/05 16:35:44;;;;;;;3.05;1.47;;;;;;;7.32;84.45;97844.14;1747008;82;21188;-41
2023/01/05 16:38:25;;;;;;;1.92;1.45;;;;;;;7.32;84.13;97846.84;1746750;82;21033;-41
2023/01/05 16:41:15;;;;;;;2.02;1.52;;;;;;;7.33;83.96;97838.17;1745873;82;21045;-41
2023/01/05 16:43:59;;;;;;;2.58;1.80;;;;;;;7.32;83.94;97841.44;1746742;82;21521;-41
2023/01/05 16:46:41;;;;;;;2.40;1.60;;;;;;;7.30;83.92;97837.59;1746848;82;21009;-41
2023/01/05 16:49:33;;;;;;;2.00;1.60;;;;;;;7.31;83.77;97839.14;1746691;82;21152;-41
2023/01/05 16:52:00;;;;;;;2.35;1.60;;;;;;;7.35;83.44;97832.62;1746716;82;21029;-41
2023/01/05 16:54:36;;;;;;;3.55;1.70;;;;;;;7.35;83.27;97835.33;1723649;82;20906;-41
2023/01/05 16:57:27;;;;;;;5.33;1.75;;;;;;;7.30;83.30;97843.76;1746695;82;20968;-41
2023/01/05 16:59:52;;;;;;;1.95;1.60;;;;;;;7.24;83.52;97838.51;1746641;82;21084;-41
2023/01/05 17:02:45;;;;;;;5.25;1.98;;;;;;;7.20;83.75;97844.45;1720129;82;21238;-41
2023/01/05 17:05:24;;;;;;;3.52;2.33;;;;;;;7.25;83.70;97849.49;1738477;82;20996;-41
2023/01/05 17:08:02;;;;;;;2.35;1.90;;;;;;;7.28;83.70;97848.73;1737710;82;21000;-41
2023/01/05 17:10:29;;;;;;;2.50;1.75;;;;;;;7.26;83.92;97852.37;1723951;83;21074;-41
2023/01/05 17:13:06;;;;;;;2.05;1.80;;;;;;;7.23;84.06;97846.39;1725568;83;21048;-41
2023/01/05 17:15:34;;;;;;;3.42;1.65;;;;;;;7.22;84.07;97848.88;1724074;83;21504;-41
2023/01/05 17:18:21;;;;;;;2.92;1.80;;;;;;;7.27;83.83;97852.58;1725332;83;21641;-41
2023/01/05 17:20:48;;;;;;;3.75;2.00;;;;;;;7.30;83.94;97849.15;1754166;81;21004;-41
2023/01/05 17:23:22;;;;;;;4.37;2.00;;;;;;;7.24;84.23;97854.68;1754034;81;21103;-41
2023/01/05 17:25:50;;;;;;;1.77;1.57;;;;;;;7.21;84.44;97850.02;1754126;81;21479;-41
2023/01/05 17:28:17;;;;;;;2.12;1.40;;;;;;;7.17;84.76;97860.00;1754237;81;21084;-41
2023/01/05 17:30:44;;;;;;;2.47;1.80;;;;;;;7.21;84.76;97856.75;1754011;81;21899;-41
2023/01/05 17:33:12;;;;;;;2.27;1.70;;;;;;;7.25;84.81;97852.76;1753909;81;21849;-41
2023/01/05 17:35:39;;;;;;;2.20;1.67;;;;;;;7.23;85.13;97857.17;1754019;81;20984;-41
2023/01/05 17:38:05;;;;;;;2.62;1.90;;;;;;;7.22;85.53;97861.00;1753985;81;21044;-41
2023/01/05 17:40:33;;;;;;;2.33;1.70;;;;;;;7.23;85.78;97857.17;1753948;81;21177;-41
2023/01/05 17:42:59;;;;;;;2.70;1.70;;;;;;;7.29;85.78;97861.08;1754076;81;21518;-41
2023/01/05 17:45:26;;;;;;;1.62;1.50;;;;;;;7.35;85.81;97866.89;1754046;81;21020;-41
2023/01/05 17:47:53;;;;;;;2.95;1.60;;;;;;;7.34;85.87;97857.25;1753775;81;21076;-41
2023/01/05 17:50:26;;;;;;;2.17;1.50;;;;;;;7.33;85.96;97863.22;1753893;81;21009;-41
2023/01/05 17:52:53;;;;;;;2.08;1.75;;;;;;;7.35;85.90;97866.89;1754161;81;22681;-41
2023/01/05 17:55:20;;;;;;;2.77;1.85;;;;;;;7.37;85.89;97869.41;1753898;81;21019;-41
2023/01/05 21:14:56;;;;;;;1.85;1.30;;;;;;;7.18;90.29;97941.63;1756563;80;22734;-40
2023/01/05 21:17:23;;;;;;;3.15;1.80;;;;;;;7.26;89.35;97941.31;1751787;81;20960;-40
2023/01/05 21:19:49;;;;;;;3.02;1.95;;;;;;;7.20;89.31;97948.78;1757367;81;21154;-40
2023/01/05 21:22:16;;;;;;;2.65;1.60;;;;;;;7.14;88.88;97957.77;1773069;81;21582;-40
2023/01/05 21:24:44;;;;;;;3.47;1.50;;;;;;;7.19;88.64;97961.48;1772861;81;20961;-40
2023/01/05 21:27:11;;;;;;;5.20;1.92;;;;;;;7.21;88.34;97952.44;1773146;81;20934;-40
2023/01/05 21:29:38;;;;;;;3.67;1.60;;;;;;;7.20;87.88;97952.26;1772982;81;20969;-40
2023/01/05 21:32:06;;;;;;;3.05;1.42;;;;;;;7.17;87.51;97958.94;1772989;81;21064;-40
2023/01/05 21:34:33;;;;;;;3.72;1.77;;;;;;;7.17;87.00;97953.55;1772679;81;20993;-40
2023/01/05 21:36:59;;;;;;;2.70;1.75;;;;;;;7.18;86.72;97959.93;1767157;81;21514;-40
2023/01/05 21:39:27;;;;;;;2.72;1.67;;;;;;;7.19;86.78;97965.52;1773075;81;20965;-40
2023/01/05 21:44:39;;;;;;;2.67;1.42;;;;;;;7.12;86.63;97964.09;1773016;81;21148;-40
2023/01/05 21:47:06;;;;;;;3.42;1.70;;;;;;;7.17;86.29;97961.06;1772858;81;21514;-40
2023/01/05 21:49:35;;;;;;;3.30;1.80;;;;;;;7.17;86.17;97963.77;1772933;81;20937;-40
2023/01/05 21:57:32;;;;;;;2.80;1.80;;;;;;;7.17;86.15;97965.11;1772973;81;21249;-40
2023/01/05 21:59:58;;;;;;;3.25;1.70;;;;;;;7.20;86.03;97967.08;1772863;81;21081;-40
2023/01/05 22:02:25;;;;;;;3.05;1.70;;;;;;;7.18;85.93;97968.02;1773010;81;21049;-40
2023/01/05 22:04:52;;;;;;;2.87;1.50;;;;;;;7.19;85.76;97964.75;1773085;81;21021;-40
2023/01/05 22:07:19;;;;;;;2.62;1.67;;;;;;;7.21;85.37;97969.20;1773633;81;21099;-40
2023/01/05 22:09:45;;;;;;;2.95;1.75;;;;;;;7.23;85.28;97973.64;1773070;81;21292;-40
2023/01/05 22:12:12;;;;;;;4.30;1.67;;;;;;;7.18;85.26;97976.09;1773204;81;21057;-40
2023/01/05 22:14:39;;;;;;;2.27;1.60;;;;;;;7.16;85.31;97970.32;1772753;81;21053;-40
2023/01/05 22:17:07;;;;;;;2.50;1.52;;;;;;;7.17;85.29;97969.16;1772571;81;20929;-40
2023/01/05 22:19:34;;;;;;;2.52;1.90;;;;;;;7.22;85.14;97971.52;1772213;81;21491;-40
2023/01/05 22:22:00;;;;;;;2.62;1.70;;;;;;;7.21;84.95;97975.34;1772296;81;23146;-40
2023/01/05 22:24:27;;;;;;;4.15;1.72;;;;;;;7.16;84.81;97978.41;1772259;81;20961;-40
2023/01/05 22:26:54;;;;;;;2.98;2.00;;;;;;;7.14;84.85;97978.56;1772427;81;21013;-40
2023/01/05 22:29:21;;;;;;;4.00;2.00;;;;;;;7.17;84.64;97981.28;1772415;81;20930;-40
2023/01/05 22:31:49;;;;;;;7.12;2.30;;;;;;;7.18;84.72;97980.71;1772374;81;21617;-40
2023/01/05 22:34:16;;;;;;;3.02;1.95;;;;;;;7.16;84.74;97993.23;1772392;81;21255;-40
2023/01/05 22:36:43;;;;;;;2.22;1.70;;;;;;;7.17;84.47;97994.75;1772267;81;20953;-40
2023/01/05 22:39:11;;;;;;;2.30;1.80;;;;;;;7.16;84.31;97986.49;1772461;81;21020;-40
2023/01/05 22:41:38;;;;;;;2.55;1.50;;;;;;;7.17;84.22;97990.72;1772285;81;20965;-40
2023/01/05 22:44:05;;;;;;;2.58;1.80;;;;;;;7.12;84.18;97988.34;1772575;81;21037;-40
2023/01/05 22:46:31;;;;;;;4.03;1.77;;;;;;;7.09;84.15;97986.41;1772373;81;21259;-40
2023/01/05 22:48:59;;;;;;;2.45;1.42;;;;;;;7.07;83.92;97995.42;1772372;81;20953;-40
2023/01/05 22:51:34;;;;;;;2.20;1.50;;;;;;;7.12;83.84;98002.39;1772336;81;21526;-40
2023/01/05 22:54:01;;;;;;;1.82;1.40;;;;;;;7.14;83.55;98002.24;1772543;81;20973;-40
2023/01/05 22:56:30;;;;;;;2.08;1.50;;;;;;;7.09;83.21;97998.53;1772517;81;21013;-40
2023/01/05 22:58:57;;;;;;;2.40;1.55;;;;;;;7.06;82.67;98006.02;1772967;81;21315;-40
2023/01/05 23:01:26;;;;;;;2.37;1.20;;;;;;;7.08;82.42;98011.80;1772406;81;21041;-40
2023/01/05 23:03:56;;;;;;;3.15;1.55;;;;;;;7.11;82.36;98009.73;1772608;81;20965;-40
2023/01/05 23:06:24;;;;;;;3.05;1.72;;;;;;;7.08;82.21;98015.06;1772709;81;20977;-40
2023/01/05 23:08:51;;;;;;;1.90;1.30;;;;;;;7.02;82.27;98015.20;1772397;81;21549;-40
2023/01/05 23:11:21;;;;;;;4.20;1.22;;;;;;;6.99;82.36;98027.48;1772492;81;21243;-40
2023/01/05 23:13:48;;;;;;;;;;;;;;;7.04;82.38;98035.23;1775050;80;21313;-40
2023/01/05 23:16:15;;;;;;;2.00;1.27;;;;;;;7.04;82.18;98031.20;1772564;81;20155;-40
2023/01/05 23:18:41;;;;;;;3.35;1.60;;;;;;;6.91;82.61;98032.02;1772282;81;21037;-40
2023/01/05 23:21:11;;;;;;;1.60;1.20;;;;;;;6.92;82.89;98032.80;1772527;80;21077;-40
2023/01/05 23:23:37;;;;;;;1.95;1.00;;;;;;;6.94;82.72;98036.66;1772557;81;21073;-40
2023/01/05 23:26:08;;;;;;;3.42;1.20;;;;;;;6.99;82.70;98040.95;1772127;81;20934;-40
2023/01/05 23:28:36;;;;;;;1.52;1.10;;;;;;;7.01;82.65;98042.72;1772501;81;26515;-40
2023/01/05 23:31:03;;;;;;;2.30;1.12;;;;;;;6.99;82.60;98038.26;1772531;81;21558;-40
2023/01/05 23:33:33;;;;;;;1.77;1.10;;;;;;;6.93;82.68;98038.38;1772422;81;21049;-40
2023/01/05 23:36:00;;;;;;;3.02;1.00;;;;;;;6.89;82.68;98048.33;1772374;81;21154;-40
2023/01/05 23:38:27;;;;;;;2.42;1.55;;;;;;;6.90;82.62;98047.20;1772368;81;20953;-40
2023/01/05 23:40:55;;;;;;;2.87;1.10;;;;;;;6.93;82.63;98053.19;1772237;81;21068;-40
2023/01/05 23:43:24;;;;;;;1.77;1.00;;;;;;;6.91;82.83;98050.88;1772373;81;21570;-40
2023/01/05 23:45:51;;;;;;;2.20;0.90;;;;;;;6.88;82.72;98053.52;1772984;81;21001;-40
2023/01/05 23:48:18;;;;;;;1.72;1.10;;;;;;;6.86;82.67;98059.85;1772402;81;21307;-40
2023/01/05 23:50:46;;;;;;;2.15;1.20;;;;;;;6.90;82.56;98061.45;1772440;81;21045;-40
2023/01/05 23:53:13;;;;;;;1.22;1.07;;;;;;;6.91;82.33;98072.44;1772536;81;20970;-40
2023/01/05 23:55:40;;;;;;;1.35;1.05;;;;;;;6.89;82.46;98073.92;1772502;81;21078;-40
2023/01/05 23:58:08;;;;;;;1.87;1.25;;;;;;;6.84;82.48;98075.59;1772528;81;21543;-40
